sensor_id;sensor_type;location;lat;lon;timestamp;temperature;humidity
15178;DHT22;7689;53.612;-2.416;2022-09-27T00:00:01;7.40;99.90
15178;DHT22;7689;53.612;-2.416;2022-09-27T00:02:27;7.40;99.90
15178;DHT22;7689;53.612;-2.416;2022-09-27T00:04:52;7.40;99.90
15178;DHT22;7689;53.612;-2.416;2022-09-27T00:07:18;7.50;99.90
15178;DHT22;7689;53.612;-2.416;2022-09-27T00:09:43;7.50;99.90
15178;DHT22;7689;53.612;-2.416;2022-09-27T00:12:09;7.50;99.90
15178;DHT22;7689;53.612;-2.416;2022-09-27T00:14:35;7.40;99.90
15178;DHT22;7689;53.612;-2.416;2022-09-27T00:17:00;7.40;99.90
15178;DHT22;7689;53.612;-2.416;2022-09-27T00:19:26;7.40;99.90
15178;DHT22;7689;53.612;-2.416;2022-09-27T00:21:52;7.30;99.90
15178;DHT22;7689;53.612;-2.416;2022-09-27T00:24:20;7.30;99.90
15178;DHT22;7689;53.612;-2.416;2022-09-27T00:26:46;7.30;99.90
15178;DHT22;7689;53.612;-2.416;2022-09-27T00:29:14;7.40;99.90
15178;DHT22;7689;53.612;-2.416;2022-09-27T00:31:39;7.30;99.90
15178;DHT22;7689;53.612;-2.416;2022-09-27T00:34:06;7.30;99.90
15178;DHT22;7689;53.612;-2.416;2022-09-27T00:36:32;7.30;99.90
15178;DHT22;7689;53.612;-2.416;2022-09-27T00:38:58;7.30;99.90
15178;DHT22;7689;53.612;-2.416;2022-09-27T00:41:30;7.30;99.90
15178;DHT22;7689;53.612;-2.416;2022-09-27T00:44:02;7.30;99.90
15178;DHT22;7689;53.612;-2.416;2022-09-27T00:46:36;7.20;99.90
15178;DHT22;7689;53.612;-2.416;2022-09-27T00:49:10;7.20;99.90
15178;DHT22;7689;53.612;-2.416;2022-09-27T00:51:41;7.20;99.90
15178;DHT22;7689;53.612;-2.416;2022-09-27T00:54:10;7.20;99.90
15178;DHT22;7689;53.612;-2.416;2022-09-27T00:56:37;7.10;99.90
15178;DHT22;7689;53.612;-2.416;2022-09-27T00:59:17;7.20;99.90
15178;DHT22;7689;53.612;-2.416;2022-09-27T01:01:45;7.10;99.90
15178;DHT22;7689;53.612;-2.416;2022-09-27T01:04:12;7.10;99.90
15178;DHT22;7689;53.612;-2.416;2022-09-27T01:06:39;7.10;99.90
15178;DHT22;7689;53.612;-2.416;2022-09-27T01:09:07;7.10;99.90
15178;DHT22;7689;53.612;-2.416;2022-09-27T01:31:33;7.40;99.90
15178;DHT22;7689;53.612;-2.416;2022-09-27T01:45:16;7.70;99.90
15178;DHT22;7689;53.612;-2.416;2022-09-27T01:47:48;7.70;99.90
15178;DHT22;7689;53.612;-2.416;2022-09-27T01:50:20;7.70;99.90
15178;DHT22;7689;53.612;-2.416;2022-09-27T01:52:58;7.60;99.90
15178;DHT22;7689;53.612;-2.416;2022-09-27T01:55:30;7.60;99.90
15178;DHT22;7689;53.612;-2.416;2022-09-27T01:58:13;7.50;99.90
15178;DHT22;7689;53.612;-2.416;2022-09-27T02:00:41;7.50;99.90
15178;DHT22;7689;53.612;-2.416;2022-09-27T02:03:22;7.60;99.90
15178;DHT22;7689;53.612;-2.416;2022-09-27T02:05:56;7.50;99.90
15178;DHT22;7689;53.612;-2.416;2022-09-27T02:08:37;7.40;99.90
15178;DHT22;7689;53.612;-2.416;2022-09-27T02:11:09;7.50;99.90
15178;DHT22;7689;53.612;-2.416;2022-09-27T02:13:52;7.50;99.90
15178;DHT22;7689;53.612;-2.416;2022-09-27T02:24:21;7.70;99.90
15178;DHT22;7689;53.612;-2.416;2022-09-27T02:26:59;7.60;99.90
15178;DHT22;7689;53.612;-2.416;2022-09-27T02:29:42;7.50;99.90
15178;DHT22;7689;53.612;-2.416;2022-09-27T02:32:09;7.50;99.90
15178;DHT22;7689;53.612;-2.416;2022-09-27T02:34:35;7.50;99.90
15178;DHT22;7689;53.612;-2.416;2022-09-27T02:37:03;7.50;99.90
15178;DHT22;7689;53.612;-2.416;2022-09-27T02:39:28;7.50;99.90
15178;DHT22;7689;53.612;-2.416;2022-09-27T02:41:54;7.60;99.90
15178;DHT22;7689;53.612;-2.416;2022-09-27T02:44:23;7.60;99.90
15178;DHT22;7689;53.612;-2.416;2022-09-27T02:55:13;7.70;99.90
15178;DHT22;7689;53.612;-2.416;2022-09-27T03:00:19;7.70;99.90
15178;DHT22;7689;53.612;-2.416;2022-09-27T03:06:07;7.70;99.90
15178;DHT22;7689;53.612;-2.416;2022-09-27T03:08:35;7.80;99.90
15178;DHT22;7689;53.612;-2.416;2022-09-27T03:11:01;7.90;99.90
15178;DHT22;7689;53.612;-2.416;2022-09-27T03:13:27;7.90;99.90
15178;DHT22;7689;53.612;-2.416;2022-09-27T03:15:52;7.80;99.90
15178;DHT22;7689;53.612;-2.416;2022-09-27T03:18:18;7.90;99.90
15178;DHT22;7689;53.612;-2.416;2022-09-27T03:20:44;7.80;99.90
15178;DHT22;7689;53.612;-2.416;2022-09-27T03:23:10;7.90;99.90
15178;DHT22;7689;53.612;-2.416;2022-09-27T03:25:36;8.00;99.90
15178;DHT22;7689;53.612;-2.416;2022-09-27T03:28:01;8.00;99.90
15178;DHT22;7689;53.612;-2.416;2022-09-27T03:30:27;8.00;99.90
15178;DHT22;7689;53.612;-2.416;2022-09-27T03:32:52;8.10;99.90
15178;DHT22;7689;53.612;-2.416;2022-09-27T03:35:18;8.20;99.90
15178;DHT22;7689;53.612;-2.416;2022-09-27T03:37:44;8.10;99.90
15178;DHT22;7689;53.612;-2.416;2022-09-27T03:40:11;8.20;99.90
15178;DHT22;7689;53.612;-2.416;2022-09-27T03:42:37;8.20;99.90
15178;DHT22;7689;53.612;-2.416;2022-09-27T03:45:04;8.10;99.90
15178;DHT22;7689;53.612;-2.416;2022-09-27T03:47:29;8.20;99.90
15178;DHT22;7689;53.612;-2.416;2022-09-27T03:49:55;8.10;99.90
15178;DHT22;7689;53.612;-2.416;2022-09-27T03:52:21;8.10;99.90
15178;DHT22;7689;53.612;-2.416;2022-09-27T03:54:46;8.20;99.90
15178;DHT22;7689;53.612;-2.416;2022-09-27T03:57:12;8.20;99.90
15178;DHT22;7689;53.612;-2.416;2022-09-27T03:59:38;8.20;99.90
15178;DHT22;7689;53.612;-2.416;2022-09-27T04:02:04;8.10;99.90
15178;DHT22;7689;53.612;-2.416;2022-09-27T04:04:29;8.10;99.90
15178;DHT22;7689;53.612;-2.416;2022-09-27T04:06:56;8.00;99.90
15178;DHT22;7689;53.612;-2.416;2022-09-27T04:09:23;7.90;99.90
15178;DHT22;7689;53.612;-2.416;2022-09-27T04:11:49;7.90;99.90
15178;DHT22;7689;53.612;-2.416;2022-09-27T04:14:15;7.90;99.90
15178;DHT22;7689;53.612;-2.416;2022-09-27T04:16:40;8.00;99.90
15178;DHT22;7689;53.612;-2.416;2022-09-27T04:19:07;8.00;99.90
15178;DHT22;7689;53.612;-2.416;2022-09-27T04:21:34;8.00;99.90
15178;DHT22;7689;53.612;-2.416;2022-09-27T04:24:00;8.00;99.90
15178;DHT22;7689;53.612;-2.416;2022-09-27T04:26:26;8.10;99.90
15178;DHT22;7689;53.612;-2.416;2022-09-27T04:28:52;8.10;99.90
15178;DHT22;7689;53.612;-2.416;2022-09-27T04:31:18;8.20;99.90
15178;DHT22;7689;53.612;-2.416;2022-09-27T04:33:43;8.30;99.90
15178;DHT22;7689;53.612;-2.416;2022-09-27T04:36:19;8.40;99.90
15178;DHT22;7689;53.612;-2.416;2022-09-27T04:38:53;8.40;99.90
15178;DHT22;7689;53.612;-2.416;2022-09-27T04:41:19;8.40;99.90
15178;DHT22;7689;53.612;-2.416;2022-09-27T04:43:46;8.50;99.90
15178;DHT22;7689;53.612;-2.416;2022-09-27T04:46:12;8.60;99.90
15178;DHT22;7689;53.612;-2.416;2022-09-27T04:48:38;8.60;99.90
15178;DHT22;7689;53.612;-2.416;2022-09-27T04:51:04;8.60;99.90
15178;DHT22;7689;53.612;-2.416;2022-09-27T04:53:30;8.60;99.90
15178;DHT22;7689;53.612;-2.416;2022-09-27T04:55:56;8.60;99.90
15178;DHT22;7689;53.612;-2.416;2022-09-27T04:58:23;8.60;99.90
15178;DHT22;7689;53.612;-2.416;2022-09-27T05:00:49;8.60;99.90
15178;DHT22;7689;53.612;-2.416;2022-09-27T05:03:18;8.60;99.90
15178;DHT22;7689;53.612;-2.416;2022-09-27T05:05:44;8.70;99.90
15178;DHT22;7689;53.612;-2.416;2022-09-27T05:08:10;8.70;99.90
15178;DHT22;7689;53.612;-2.416;2022-09-27T05:10:36;8.70;99.90
15178;DHT22;7689;53.612;-2.416;2022-09-27T05:13:02;8.70;99.90
15178;DHT22;7689;53.612;-2.416;2022-09-27T05:15:27;8.70;99.90
15178;DHT22;7689;53.612;-2.416;2022-09-27T05:17:53;8.70;99.90
15178;DHT22;7689;53.612;-2.416;2022-09-27T05:20:19;8.70;99.90
15178;DHT22;7689;53.612;-2.416;2022-09-27T05:22:45;8.70;99.90
15178;DHT22;7689;53.612;-2.416;2022-09-27T05:25:12;8.70;99.90
15178;DHT22;7689;53.612;-2.416;2022-09-27T05:27:38;8.70;99.90
15178;DHT22;7689;53.612;-2.416;2022-09-27T05:30:04;8.70;99.90
15178;DHT22;7689;53.612;-2.416;2022-09-27T05:32:32;8.60;99.90
15178;DHT22;7689;53.612;-2.416;2022-09-27T05:34:58;8.60;99.90
15178;DHT22;7689;53.612;-2.416;2022-09-27T05:37:25;8.60;99.90
15178;DHT22;7689;53.612;-2.416;2022-09-27T05:39:50;8.60;99.90
15178;DHT22;7689;53.612;-2.416;2022-09-27T05:42:17;8.50;99.90
15178;DHT22;7689;53.612;-2.416;2022-09-27T05:44:43;8.60;99.90
15178;DHT22;7689;53.612;-2.416;2022-09-27T05:47:12;8.60;99.90
15178;DHT22;7689;53.612;-2.416;2022-09-27T05:49:38;8.50;99.90
15178;DHT22;7689;53.612;-2.416;2022-09-27T05:52:05;8.70;99.90
15178;DHT22;7689;53.612;-2.416;2022-09-27T05:54:30;8.60;99.90
15178;DHT22;7689;53.612;-2.416;2022-09-27T05:56:57;8.60;99.90
15178;DHT22;7689;53.612;-2.416;2022-09-27T05:59:24;8.70;99.90
15178;DHT22;7689;53.612;-2.416;2022-09-27T06:01:50;8.70;99.90
15178;DHT22;7689;53.612;-2.416;2022-09-27T06:04:17;8.80;99.90
15178;DHT22;7689;53.612;-2.416;2022-09-27T06:06:43;8.80;99.90
15178;DHT22;7689;53.612;-2.416;2022-09-27T06:09:10;8.80;99.90
15178;DHT22;7689;53.612;-2.416;2022-09-27T06:11:35;8.80;99.90
15178;DHT22;7689;53.612;-2.416;2022-09-27T06:14:01;8.80;99.90
15178;DHT22;7689;53.612;-2.416;2022-09-27T06:16:27;8.90;99.90
15178;DHT22;7689;53.612;-2.416;2022-09-27T06:18:52;8.90;99.90
15178;DHT22;7689;53.612;-2.416;2022-09-27T06:21:18;9.00;99.90
15178;DHT22;7689;53.612;-2.416;2022-09-27T06:23:44;9.00;99.90
15178;DHT22;7689;53.612;-2.416;2022-09-27T06:26:11;9.10;99.90
15178;DHT22;7689;53.612;-2.416;2022-09-27T06:28:37;9.20;99.90
15178;DHT22;7689;53.612;-2.416;2022-09-27T06:31:05;9.10;99.90
15178;DHT22;7689;53.612;-2.416;2022-09-27T06:33:32;9.10;99.90
15178;DHT22;7689;53.612;-2.416;2022-09-27T06:36:01;9.00;99.90
15178;DHT22;7689;53.612;-2.416;2022-09-27T06:38:27;9.10;99.90
15178;DHT22;7689;53.612;-2.416;2022-09-27T06:40:52;9.00;99.90
15178;DHT22;7689;53.612;-2.416;2022-09-27T06:43:19;9.10;99.90
15178;DHT22;7689;53.612;-2.416;2022-09-27T06:45:46;9.10;99.90
15178;DHT22;7689;53.612;-2.416;2022-09-27T06:48:13;9.10;99.90
15178;DHT22;7689;53.612;-2.416;2022-09-27T06:50:40;9.20;99.90
15178;DHT22;7689;53.612;-2.416;2022-09-27T06:53:10;9.30;99.90
15178;DHT22;7689;53.612;-2.416;2022-09-27T06:55:37;9.30;99.90
15178;DHT22;7689;53.612;-2.416;2022-09-27T06:58:03;9.40;99.90
15178;DHT22;7689;53.612;-2.416;2022-09-27T07:00:51;9.40;99.90
15178;DHT22;7689;53.612;-2.416;2022-09-27T07:03:19;9.40;99.90
15178;DHT22;7689;53.612;-2.416;2022-09-27T07:05:57;9.40;99.90
15178;DHT22;7689;53.612;-2.416;2022-09-27T07:08:23;9.40;99.90
15178;DHT22;7689;53.612;-2.416;2022-09-27T07:10:50;9.40;99.90
15178;DHT22;7689;53.612;-2.416;2022-09-27T07:13:17;9.40;99.90
15178;DHT22;7689;53.612;-2.416;2022-09-27T07:15:43;9.40;99.90
15178;DHT22;7689;53.612;-2.416;2022-09-27T07:18:09;9.50;99.90
15178;DHT22;7689;53.612;-2.416;2022-09-27T07:20:35;9.60;99.90
15178;DHT22;7689;53.612;-2.416;2022-09-27T07:23:03;9.90;99.90
15178;DHT22;7689;53.612;-2.416;2022-09-27T07:25:30;10.20;99.90
15178;DHT22;7689;53.612;-2.416;2022-09-27T07:28:03;10.50;99.90
15178;DHT22;7689;53.612;-2.416;2022-09-27T07:30:30;10.80;99.90
15178;DHT22;7689;53.612;-2.416;2022-09-27T07:33:00;11.30;99.90
15178;DHT22;7689;53.612;-2.416;2022-09-27T07:35:27;11.30;99.90
15178;DHT22;7689;53.612;-2.416;2022-09-27T07:37:54;10.90;99.90
15178;DHT22;7689;53.612;-2.416;2022-09-27T07:40:20;10.80;99.90
15178;DHT22;7689;53.612;-2.416;2022-09-27T07:42:45;10.60;99.90
15178;DHT22;7689;53.612;-2.416;2022-09-27T07:45:11;10.90;99.90
15178;DHT22;7689;53.612;-2.416;2022-09-27T07:47:38;11.30;99.90
15178;DHT22;7689;53.612;-2.416;2022-09-27T07:50:06;11.70;99.90
15178;DHT22;7689;53.612;-2.416;2022-09-27T07:52:39;12.20;99.90
15178;DHT22;7689;53.612;-2.416;2022-09-27T07:55:06;12.40;99.90
15178;DHT22;7689;53.612;-2.416;2022-09-27T07:57:32;12.40;99.90
15178;DHT22;7689;53.612;-2.416;2022-09-27T07:59:58;12.30;99.90
15178;DHT22;7689;53.612;-2.416;2022-09-27T08:02:24;12.60;99.90
15178;DHT22;7689;53.612;-2.416;2022-09-27T08:04:50;12.70;99.90
15178;DHT22;7689;53.612;-2.416;2022-09-27T08:07:16;12.60;99.90
15178;DHT22;7689;53.612;-2.416;2022-09-27T08:09:41;12.70;99.90
15178;DHT22;7689;53.612;-2.416;2022-09-27T08:12:07;12.40;99.90
15178;DHT22;7689;53.612;-2.416;2022-09-27T08:14:33;12.00;99.90
15178;DHT22;7689;53.612;-2.416;2022-09-27T08:16:59;11.80;99.90
15178;DHT22;7689;53.612;-2.416;2022-09-27T08:19:25;11.80;99.90
15178;DHT22;7689;53.612;-2.416;2022-09-27T08:21:51;11.50;99.90
15178;DHT22;7689;53.612;-2.416;2022-09-27T08:24:19;11.50;99.90
15178;DHT22;7689;53.612;-2.416;2022-09-27T08:26:45;11.40;99.90
15178;DHT22;7689;53.612;-2.416;2022-09-27T08:29:11;11.40;99.90
15178;DHT22;7689;53.612;-2.416;2022-09-27T08:31:39;11.40;99.90
15178;DHT22;7689;53.612;-2.416;2022-09-27T08:34:05;11.30;99.90
15178;DHT22;7689;53.612;-2.416;2022-09-27T08:36:30;11.30;99.90
15178;DHT22;7689;53.612;-2.416;2022-09-27T08:39:00;11.30;99.90
15178;DHT22;7689;53.612;-2.416;2022-09-27T08:44:38;11.40;99.90
15178;DHT22;7689;53.612;-2.416;2022-09-27T08:47:40;11.50;99.90
15178;DHT22;7689;53.612;-2.416;2022-09-27T08:50:24;11.50;99.90
15178;DHT22;7689;53.612;-2.416;2022-09-27T08:53:01;11.40;99.90
15178;DHT22;7689;53.612;-2.416;2022-09-27T08:55:51;11.40;99.90
15178;DHT22;7689;53.612;-2.416;2022-09-27T08:58:33;11.60;99.90
15178;DHT22;7689;53.612;-2.416;2022-09-27T09:01:13;11.60;99.90
15178;DHT22;7689;53.612;-2.416;2022-09-27T09:03:48;11.50;99.90
15178;DHT22;7689;53.612;-2.416;2022-09-27T09:12:15;11.70;99.90
15178;DHT22;7689;53.612;-2.416;2022-09-27T09:21:05;12.00;99.90
15178;DHT22;7689;53.612;-2.416;2022-09-27T09:26:38;12.00;99.90
15178;DHT22;7689;53.612;-2.416;2022-09-27T09:34:25;12.30;99.90
15178;DHT22;7689;53.612;-2.416;2022-09-27T09:39:27;12.00;99.90
15178;DHT22;7689;53.612;-2.416;2022-09-27T09:42:03;11.80;99.90
15178;DHT22;7689;53.612;-2.416;2022-09-27T09:44:51;11.80;99.90
15178;DHT22;7689;53.612;-2.416;2022-09-27T09:50:04;12.20;99.90
15178;DHT22;7689;53.612;-2.416;2022-09-27T09:52:41;12.40;99.90
15178;DHT22;7689;53.612;-2.416;2022-09-27T09:55:21;12.40;99.90
15178;DHT22;7689;53.612;-2.416;2022-09-27T10:00:39;12.40;99.90
15178;DHT22;7689;53.612;-2.416;2022-09-27T10:03:05;12.60;99.90
15178;DHT22;7689;53.612;-2.416;2022-09-27T10:05:31;12.90;99.90
15178;DHT22;7689;53.612;-2.416;2022-09-27T10:08:00;12.70;99.90
15178;DHT22;7689;53.612;-2.416;2022-09-27T10:10:27;12.70;99.90
15178;DHT22;7689;53.612;-2.416;2022-09-27T10:12:53;12.80;99.90
15178;DHT22;7689;53.612;-2.416;2022-09-27T10:15:21;12.70;99.90
15178;DHT22;7689;53.612;-2.416;2022-09-27T10:17:51;12.70;99.90
15178;DHT22;7689;53.612;-2.416;2022-09-27T10:22:58;12.90;99.90
15178;DHT22;7689;53.612;-2.416;2022-09-27T10:25:53;12.80;99.90
15178;DHT22;7689;53.612;-2.416;2022-09-27T10:28:40;12.80;99.90
15178;DHT22;7689;53.612;-2.416;2022-09-27T10:31:10;13.00;99.90
15178;DHT22;7689;53.612;-2.416;2022-09-27T10:33:49;13.20;99.90
15178;DHT22;7689;53.612;-2.416;2022-09-27T10:36:25;13.10;99.90
15178;DHT22;7689;53.612;-2.416;2022-09-27T10:38:57;13.20;99.90
15178;DHT22;7689;53.612;-2.416;2022-09-27T10:43:52;13.30;99.90
15178;DHT22;7689;53.612;-2.416;2022-09-27T10:46:31;13.20;99.90
15178;DHT22;7689;53.612;-2.416;2022-09-27T10:49:31;13.00;99.90
15178;DHT22;7689;53.612;-2.416;2022-09-27T10:52:01;12.80;99.90
15178;DHT22;7689;53.612;-2.416;2022-09-27T10:54:31;13.10;99.90
15178;DHT22;7689;53.612;-2.416;2022-09-27T10:59:41;13.20;99.90
15178;DHT22;7689;53.612;-2.416;2022-09-27T11:02:20;13.10;99.90
15178;DHT22;7689;53.612;-2.416;2022-09-27T11:07:53;13.10;99.90
15178;DHT22;7689;53.612;-2.416;2022-09-27T11:10:29;13.10;99.90
15178;DHT22;7689;53.612;-2.416;2022-09-27T11:38:27;13.20;99.90
15178;DHT22;7689;53.612;-2.416;2022-09-27T11:46:59;12.70;99.90
15178;DHT22;7689;53.612;-2.416;2022-09-27T11:58:03;13.20;99.90
15178;DHT22;7689;53.612;-2.416;2022-09-27T12:00:49;13.40;99.90
15178;DHT22;7689;53.612;-2.416;2022-09-27T12:06:04;13.40;99.90
15178;DHT22;7689;53.612;-2.416;2022-09-27T12:11:30;13.50;99.90
15178;DHT22;7689;53.612;-2.416;2022-09-27T12:14:07;13.50;99.90
15178;DHT22;7689;53.612;-2.416;2022-09-27T12:16:36;15.30;99.90
15178;DHT22;7689;53.612;-2.416;2022-09-27T12:19:03;13.60;99.90
15178;DHT22;7689;53.612;-2.416;2022-09-27T12:21:33;13.30;99.90
15178;DHT22;7689;53.612;-2.416;2022-09-27T12:24:00;13.30;99.90
15178;DHT22;7689;53.612;-2.416;2022-09-27T12:26:37;13.20;99.90
15178;DHT22;7689;53.612;-2.416;2022-09-27T12:29:37;13.30;99.90
15178;DHT22;7689;53.612;-2.416;2022-09-27T12:35:15;13.40;99.90
15178;DHT22;7689;53.612;-2.416;2022-09-27T12:37:54;13.50;99.90
15178;DHT22;7689;53.612;-2.416;2022-09-27T12:40:30;13.70;99.90
15178;DHT22;7689;53.612;-2.416;2022-09-27T12:43:17;13.60;99.90
15178;DHT22;7689;53.612;-2.416;2022-09-27T12:51:16;13.70;99.90
15178;DHT22;7689;53.612;-2.416;2022-09-27T13:02:39;13.50;99.90
15178;DHT22;7689;53.612;-2.416;2022-09-27T13:13:15;13.60;99.90
15178;DHT22;7689;53.612;-2.416;2022-09-27T13:15:43;13.50;99.90
15178;DHT22;7689;53.612;-2.416;2022-09-27T13:20:54;13.60;99.90
15178;DHT22;7689;53.612;-2.416;2022-09-27T13:30:53;13.20;99.90
15178;DHT22;7689;53.612;-2.416;2022-09-27T13:36:05;13.50;99.90
15178;DHT22;7689;53.612;-2.416;2022-09-27T13:38:31;13.60;99.90
15178;DHT22;7689;53.612;-2.416;2022-09-27T13:41:17;13.50;99.90
15178;DHT22;7689;53.612;-2.416;2022-09-27T13:44:06;13.50;99.90
15178;DHT22;7689;53.612;-2.416;2022-09-27T13:46:34;13.80;99.90
15178;DHT22;7689;53.612;-2.416;2022-09-27T13:49:26;14.10;99.90
15178;DHT22;7689;53.612;-2.416;2022-09-27T13:52:02;14.00;99.90
15178;DHT22;7689;53.612;-2.416;2022-09-27T13:57:39;14.20;99.90
15178;DHT22;7689;53.612;-2.416;2022-09-27T14:00:11;14.60;99.90
15178;DHT22;7689;53.612;-2.416;2022-09-27T14:05:35;14.00;99.90
15178;DHT22;7689;53.612;-2.416;2022-09-27T14:08:03;13.50;99.90
15178;DHT22;7689;53.612;-2.416;2022-09-27T14:10:31;13.30;99.90
15178;DHT22;7689;53.612;-2.416;2022-09-27T14:12:59;13.30;99.90
15178;DHT22;7689;53.612;-2.416;2022-09-27T14:15:28;13.30;99.90
15178;DHT22;7689;53.612;-2.416;2022-09-27T14:17:56;13.30;99.90
15178;DHT22;7689;53.612;-2.416;2022-09-27T14:20:48;13.50;99.90
15178;DHT22;7689;53.612;-2.416;2022-09-27T14:23:25;13.50;99.90
15178;DHT22;7689;53.612;-2.416;2022-09-27T14:25:52;13.30;99.90
15178;DHT22;7689;53.612;-2.416;2022-09-27T14:28:24;13.30;99.90
15178;DHT22;7689;53.612;-2.416;2022-09-27T14:31:15;13.30;99.90
15178;DHT22;7689;53.612;-2.416;2022-09-27T14:33:43;13.00;99.90
15178;DHT22;7689;53.612;-2.416;2022-09-27T14:36:35;12.90;99.90
15178;DHT22;7689;53.612;-2.416;2022-09-27T14:39:29;12.90;99.90
15178;DHT22;7689;53.612;-2.416;2022-09-27T14:41:55;12.90;99.90
15178;DHT22;7689;53.612;-2.416;2022-09-27T14:44:21;12.90;99.90
15178;DHT22;7689;53.612;-2.416;2022-09-27T14:47:09;12.90;99.90
15178;DHT22;7689;53.612;-2.416;2022-09-27T14:49:35;13.10;99.90
15178;DHT22;7689;53.612;-2.416;2022-09-27T14:52:20;13.20;99.90
15178;DHT22;7689;53.612;-2.416;2022-09-27T14:54:58;13.00;99.90
15178;DHT22;7689;53.612;-2.416;2022-09-27T14:57:25;12.90;99.90
15178;DHT22;7689;53.612;-2.416;2022-09-27T14:59:52;12.20;99.90
15178;DHT22;7689;53.612;-2.416;2022-09-27T15:02:20;11.90;99.90
15178;DHT22;7689;53.612;-2.416;2022-09-27T15:04:48;11.70;99.90
15178;DHT22;7689;53.612;-2.416;2022-09-27T15:07:16;11.70;99.90
15178;DHT22;7689;53.612;-2.416;2022-09-27T15:09:43;11.80;99.90
15178;DHT22;7689;53.612;-2.416;2022-09-27T15:12:12;11.90;99.90
15178;DHT22;7689;53.612;-2.416;2022-09-27T15:14:40;11.80;99.90
15178;DHT22;7689;53.612;-2.416;2022-09-27T15:17:15;11.80;99.90
15178;DHT22;7689;53.612;-2.416;2022-09-27T15:20:02;11.80;99.90
15178;DHT22;7689;53.612;-2.416;2022-09-27T15:22:40;11.70;99.90
15178;DHT22;7689;53.612;-2.416;2022-09-27T15:27:55;11.40;99.90
15178;DHT22;7689;53.612;-2.416;2022-09-27T15:30:36;11.50;99.90
15178;DHT22;7689;53.612;-2.416;2022-09-27T15:33:03;11.40;99.90
15178;DHT22;7689;53.612;-2.416;2022-09-27T15:35:34;11.30;99.90
15178;DHT22;7689;53.612;-2.416;2022-09-27T15:38:28;11.20;99.90
15178;DHT22;7689;53.612;-2.416;2022-09-27T15:40:56;11.10;99.90
15178;DHT22;7689;53.612;-2.416;2022-09-27T15:43:37;11.10;99.90
15178;DHT22;7689;53.612;-2.416;2022-09-27T15:51:43;11.10;99.90
15178;DHT22;7689;53.612;-2.416;2022-09-27T15:54:09;11.30;99.90
15178;DHT22;7689;53.612;-2.416;2022-09-27T15:56:36;11.40;99.90
15178;DHT22;7689;53.612;-2.416;2022-09-27T15:59:02;11.60;99.90
15178;DHT22;7689;53.612;-2.416;2022-09-27T16:01:28;11.60;99.90
15178;DHT22;7689;53.612;-2.416;2022-09-27T16:03:53;11.80;99.90
15178;DHT22;7689;53.612;-2.416;2022-09-27T16:06:21;11.80;99.90
15178;DHT22;7689;53.612;-2.416;2022-09-27T16:08:48;11.60;99.90
15178;DHT22;7689;53.612;-2.416;2022-09-27T16:11:15;11.50;99.90
15178;DHT22;7689;53.612;-2.416;2022-09-27T16:13:42;11.50;99.90
15178;DHT22;7689;53.612;-2.416;2022-09-27T16:16:15;11.30;99.90
15178;DHT22;7689;53.612;-2.416;2022-09-27T16:18:42;11.20;99.90
15178;DHT22;7689;53.612;-2.416;2022-09-27T16:21:09;11.20;99.90
15178;DHT22;7689;53.612;-2.416;2022-09-27T16:23:34;11.10;99.90
15178;DHT22;7689;53.612;-2.416;2022-09-27T16:26:00;11.10;99.90
15178;DHT22;7689;53.612;-2.416;2022-09-27T16:28:26;11.10;99.90
15178;DHT22;7689;53.612;-2.416;2022-09-27T16:30:51;11.10;99.90
15178;DHT22;7689;53.612;-2.416;2022-09-27T16:33:17;11.00;99.90
15178;DHT22;7689;53.612;-2.416;2022-09-27T16:35:43;11.10;99.90
15178;DHT22;7689;53.612;-2.416;2022-09-27T16:38:09;11.10;99.90
15178;DHT22;7689;53.612;-2.416;2022-09-27T16:40:35;11.00;99.90
15178;DHT22;7689;53.612;-2.416;2022-09-27T16:43:01;11.10;99.90
15178;DHT22;7689;53.612;-2.416;2022-09-27T16:45:40;11.00;99.90
15178;DHT22;7689;53.612;-2.416;2022-09-27T16:48:06;10.90;99.90
15178;DHT22;7689;53.612;-2.416;2022-09-27T16:50:31;10.90;99.90
15178;DHT22;7689;53.612;-2.416;2022-09-27T16:53:15;10.80;99.90
15178;DHT22;7689;53.612;-2.416;2022-09-27T16:55:41;10.80;99.90
15178;DHT22;7689;53.612;-2.416;2022-09-27T16:58:07;10.80;99.90
15178;DHT22;7689;53.612;-2.416;2022-09-27T17:00:33;10.90;99.90
15178;DHT22;7689;53.612;-2.416;2022-09-27T17:02:59;10.90;99.90
15178;DHT22;7689;53.612;-2.416;2022-09-27T17:05:25;10.90;99.90
15178;DHT22;7689;53.612;-2.416;2022-09-27T17:07:52;10.90;99.90
15178;DHT22;7689;53.612;-2.416;2022-09-27T17:10:21;12.10;99.90
15178;DHT22;7689;53.612;-2.416;2022-09-27T17:12:47;10.90;99.90
15178;DHT22;7689;53.612;-2.416;2022-09-27T17:15:14;10.80;99.90
15178;DHT22;7689;53.612;-2.416;2022-09-27T17:20:06;10.80;99.90
15178;DHT22;7689;53.612;-2.416;2022-09-27T17:22:32;10.80;99.90
15178;DHT22;7689;53.612;-2.416;2022-09-27T17:24:58;10.80;99.90
15178;DHT22;7689;53.612;-2.416;2022-09-27T17:27:25;10.90;99.90
15178;DHT22;7689;53.612;-2.416;2022-09-27T17:29:53;11.00;99.90
15178;DHT22;7689;53.612;-2.416;2022-09-27T17:32:19;11.00;99.90
15178;DHT22;7689;53.612;-2.416;2022-09-27T17:34:49;11.00;99.90
15178;DHT22;7689;53.612;-2.416;2022-09-27T17:37:14;10.80;99.90
15178;DHT22;7689;53.612;-2.416;2022-09-27T17:39:40;10.80;99.90
15178;DHT22;7689;53.612;-2.416;2022-09-27T17:42:06;10.70;99.90
15178;DHT22;7689;53.612;-2.416;2022-09-27T17:44:32;10.70;99.90
15178;DHT22;7689;53.612;-2.416;2022-09-27T17:46:57;10.70;99.90
15178;DHT22;7689;53.612;-2.416;2022-09-27T17:49:41;10.60;99.90
15178;DHT22;7689;53.612;-2.416;2022-09-27T17:52:25;10.60;99.90
15178;DHT22;7689;53.612;-2.416;2022-09-27T17:54:51;10.60;99.90
15178;DHT22;7689;53.612;-2.416;2022-09-27T17:57:20;10.60;99.90
15178;DHT22;7689;53.612;-2.416;2022-09-27T17:59:46;10.50;99.90
15178;DHT22;7689;53.612;-2.416;2022-09-27T18:02:12;10.50;99.90
15178;DHT22;7689;53.612;-2.416;2022-09-27T18:04:37;10.50;99.90
15178;DHT22;7689;53.612;-2.416;2022-09-27T18:07:03;10.50;99.90
15178;DHT22;7689;53.612;-2.416;2022-09-27T18:09:28;10.50;99.90
15178;DHT22;7689;53.612;-2.416;2022-09-27T18:11:54;10.40;99.90
15178;DHT22;7689;53.612;-2.416;2022-09-27T18:14:22;10.40;99.90
15178;DHT22;7689;53.612;-2.416;2022-09-27T18:16:48;10.40;99.90
15178;DHT22;7689;53.612;-2.416;2022-09-27T18:19:15;10.30;99.90
15178;DHT22;7689;53.612;-2.416;2022-09-27T18:21:42;10.20;99.90
15178;DHT22;7689;53.612;-2.416;2022-09-27T18:24:08;10.20;99.90
15178;DHT22;7689;53.612;-2.416;2022-09-27T18:26:35;10.20;99.90
15178;DHT22;7689;53.612;-2.416;2022-09-27T18:29:09;10.10;99.90
15178;DHT22;7689;53.612;-2.416;2022-09-27T18:31:36;10.10;99.90
15178;DHT22;7689;53.612;-2.416;2022-09-27T18:34:03;10.10;99.90
15178;DHT22;7689;53.612;-2.416;2022-09-27T18:36:29;10.20;99.90
15178;DHT22;7689;53.612;-2.416;2022-09-27T18:38:57;10.10;99.90
15178;DHT22;7689;53.612;-2.416;2022-09-27T18:41:25;10.10;99.90
15178;DHT22;7689;53.612;-2.416;2022-09-27T18:43:56;10.10;99.90
15178;DHT22;7689;53.612;-2.416;2022-09-27T18:46:24;10.10;99.90
15178;DHT22;7689;53.612;-2.416;2022-09-27T18:48:50;10.10;99.90
15178;DHT22;7689;53.612;-2.416;2022-09-27T18:51:22;10.10;99.90
15178;DHT22;7689;53.612;-2.416;2022-09-27T18:54:04;10.10;99.90
15178;DHT22;7689;53.612;-2.416;2022-09-27T18:56:30;10.10;99.90
15178;DHT22;7689;53.612;-2.416;2022-09-27T18:58:57;10.10;99.90
15178;DHT22;7689;53.612;-2.416;2022-09-27T19:01:23;10.10;99.90
15178;DHT22;7689;53.612;-2.416;2022-09-27T19:03:52;10.00;99.90
15178;DHT22;7689;53.612;-2.416;2022-09-27T19:06:20;10.00;99.90
15178;DHT22;7689;53.612;-2.416;2022-09-27T19:08:51;9.90;99.90